Time;durP1;ratioP1;P1;durP2;ratioP2;P2;SDS_P1;SDS_P2;PMS_P1;PMS_P2;Temp;Humidity;BMP_temperature;BMP_pressure;BME280_temperature;BME280_humidity;BME280_pressure;Samples;Min_cycle;Max_cycle;Signal;HPM_P1;HPM_P2
2024/01/20 00:03:09;;;;;;;6.10;2.25;;;;;;;;;;10243018;28;20465;-61
2024/01/20 00:08:10;;;;;;;7.63;2.67;;;;;;;;;;10308381;28;20045;-61
2024/01/20 00:13:11;;;;;;;4.22;2.70;;;;;;;;;;10300119;28;20069;-61
2024/01/20 00:18:12;;;;;;;2.28;1.90;;;;;;;;;;10303436;28;20118;-60
2024/01/20 00:23:13;;;;;;;3.60;1.92;;;;;;;;;;10297554;28;20050;-61
2024/01/20 00:28:14;;;;;;;5.07;2.30;;;;;;;;;;10307524;28;20037;-61
2024/01/20 00:33:14;;;;;;;4.55;2.40;;;;;;;;;;10298815;28;20046;-61
2024/01/20 00:38:15;;;;;;;3.75;2.33;;;;;;;;;;10282977;28;20042;-61
2024/01/20 00:43:16;;;;;;;6.82;2.10;;;;;;;;;;10319006;28;20038;-60
2024/01/20 00:48:16;;;;;;;4.28;2.33;;;;;;;;;;10323604;28;20208;-61
2024/01/20 00:53:17;;;;;;;8.23;2.47;;;;;;;;;;10331433;28;20051;-60
2024/01/20 00:58:18;;;;;;;3.55;2.47;;;;;;;;;;10323111;28;20497;-60
2024/01/20 01:03:19;;;;;;;3.40;2.30;;;;;;;;;;10294387;28;20385;-61
2024/01/20 01:08:19;;;;;;;4.40;1.90;;;;;;;;;;10317228;28;20316;-60
2024/01/20 01:13:20;;;;;;;6.70;2.15;;;;;;;;;;10315039;28;21808;-60
2024/01/20 01:18:20;;;;;;;2.70;1.95;;;;;;;;;;10289071;28;20049;-59
2024/01/20 01:23:21;;;;;;;3.55;2.35;;;;;;;;;;10288508;28;20034;-60
2024/01/20 01:28:23;;;;;;;5.35;2.30;;;;;;;;;;10322538;28;20026;-60
2024/01/20 01:33:23;;;;;;;1.80;1.67;;;;;;;;;;10250279;28;20121;-59
2024/01/20 01:38:24;;;;;;;2.33;2.13;;;;;;;;;;10238328;28;20061;-60
2024/01/20 01:43:25;;;;;;;3.10;2.05;;;;;;;;;;10235808;28;20174;-59
2024/01/20 01:48:26;;;;;;;2.13;1.88;;;;;;;;;;10235383;28;21677;-59
2024/01/20 01:53:27;;;;;;;5.35;1.90;;;;;;;;;;10233897;28;20397;-60
2024/01/20 01:58:28;;;;;;;2.75;1.98;;;;;;;;;;10241684;28;20057;-61
2024/01/20 02:03:29;;;;;;;2.67;1.90;;;;;;;;;;10340701;28;20038;-61
2024/01/20 02:08:29;;;;;;;2.20;2.00;;;;;;;;;;10336601;28;20084;-61
2024/01/20 02:13:31;;;;;;;2.50;1.75;;;;;;;;;;10327963;28;20029;-61
2024/01/20 02:18:32;;;;;;;3.38;2.17;;;;;;;;;;10328966;28;20435;-61
2024/01/20 02:23:40;;;;;;;3.90;2.17;;;;;;;;;;10288304;28;21040;-61
2024/01/20 02:28:41;;;;;;;5.88;2.33;;;;;;;;;;10234448;28;20036;-61
2024/01/20 02:33:42;;;;;;;3.65;2.30;;;;;;;;;;10317436;28;20061;-61
2024/01/20 02:38:42;;;;;;;5.60;2.22;;;;;;;;;;10331000;28;20050;-61
2024/01/20 02:43:43;;;;;;;2.33;1.75;;;;;;;;;;10308777;28;20030;-61
2024/01/20 02:48:43;;;;;;;10.77;1.83;;;;;;;;;;10337782;28;20034;-61
2024/01/20 02:53:44;;;;;;;3.33;2.10;;;;;;;;;;10327035;28;20547;-61
2024/01/20 02:58:44;;;;;;;3.58;2.00;;;;;;;;;;10310075;28;20033;-61
2024/01/20 03:03:45;;;;;;;4.00;2.13;;;;;;;;;;10333566;28;20030;-61
2024/01/20 03:08:45;;;;;;;3.03;2.33;;;;;;;;;;10326497;28;20057;-61
2024/01/20 03:13:46;;;;;;;2.05;1.80;;;;;;;;;;10331440;28;20381;-61
2024/01/20 03:18:47;;;;;;;2.95;2.00;;;;;;;;;;10330961;28;20426;-61
2024/01/20 03:23:47;;;;;;;2.78;2.20;;;;;;;;;;10336728;28;20031;-61
2024/01/20 03:28:48;;;;;;;4.75;1.92;;;;;;;;;;10332661;28;20421;-61
2024/01/20 03:33:49;;;;;;;3.25;2.10;;;;;;;;;;10324224;28;20172;-60
2024/01/20 03:38:49;;;;;;;2.63;2.08;;;;;;;;;;10324588;28;20453;-60
2024/01/20 03:43:50;;;;;;;1.90;1.70;;;;;;;;;;10317839;28;20030;-60
2024/01/20 03:48:50;;;;;;;1.85;1.70;;;;;;;;;;10329005;28;21475;-60
2024/01/20 03:53:51;;;;;;;2.40;1.90;;;;;;;;;;10326758;28;20046;-61
2024/01/20 03:58:52;;;;;;;2.17;1.83;;;;;;;;;;10320837;28;20038;-61
2024/01/20 04:03:52;;;;;;;4.47;2.00;;;;;;;;;;10327279;28;20037;-60
2024/01/20 04:08:53;;;;;;;2.53;1.80;;;;;;;;;;10337849;28;20018;-60
2024/01/20 04:13:53;;;;;;;2.45;1.70;;;;;;;;;;10329138;28;20034;-60
2024/01/20 04:18:54;;;;;;;3.75;1.98;;;;;;;;;;10329236;28;20026;-61
2024/01/20 04:23:54;;;;;;;1.70;1.60;;;;;;;;;;10319921;28;20041;-61
2024/01/20 04:28:55;;;;;;;2.03;1.63;;;;;;;;;;10324131;28;21703;-60
2024/01/20 04:33:56;;;;;;;1.77;1.67;;;;;;;;;;10302352;28;20029;-60
2024/01/20 04:38:56;;;;;;;1.70;1.60;;;;;;;;;;10315273;28;20049;-60
2024/01/20 04:43:57;;;;;;;2.25;1.70;;;;;;;;;;10328107;28;20033;-60
2024/01/20 04:48:57;;;;;;;2.60;1.90;;;;;;;;;;10319646;28;20097;-60
2024/01/20 04:53:58;;;;;;;1.98;1.63;;;;;;;;;;10325911;28;20251;-60
2024/01/20 04:58:58;;;;;;;3.15;2.10;;;;;;;;;;10316988;28;20096;-60
2024/01/20 05:03:59;;;;;;;2.45;1.88;;;;;;;;;;10325599;28;20037;-60
2024/01/20 05:09:00;;;;;;;2.20;1.73;;;;;;;;;;10323977;28;20057;-60
2024/01/20 05:14:00;;;;;;;1.83;1.65;;;;;;;;;;10333488;28;20753;-60
2024/01/20 05:19:01;;;;;;;1.98;1.58;;;;;;;;;;10340719;28;20033;-61
2024/01/20 05:24:02;;;;;;;2.13;1.92;;;;;;;;;;10325634;28;20386;-61
2024/01/20 05:29:03;;;;;;;1.73;1.63;;;;;;;;;;10319880;28;20026;-60
2024/01/20 05:34:03;;;;;;;3.50;1.75;;;;;;;;;;10322176;28;20073;-61
2024/01/20 05:39:04;;;;;;;4.88;1.90;;;;;;;;;;10304987;28;20046;-61
2024/01/20 05:44:05;;;;;;;1.90;1.70;;;;;;;;;;10327511;28;20026;-61
2024/01/20 05:49:06;;;;;;;2.88;1.85;;;;;;;;;;10329749;28;20026;-60
2024/01/20 05:54:07;;;;;;;2.95;2.22;;;;;;;;;;10333277;28;20034;-60
2024/01/20 05:59:07;;;;;;;2.47;1.98;;;;;;;;;;10309009;28;20034;-61
2024/01/20 06:04:08;;;;;;;1.55;1.45;;;;;;;;;;10302934;28;20069;-60
2024/01/20 06:09:09;;;;;;;1.60;1.50;;;;;;;;;;10326130;28;20059;-60
2024/01/20 06:14:09;;;;;;;2.53;1.80;;;;;;;;;;10321030;28;20379;-62
2024/01/20 06:19:10;;;;;;;2.50;1.88;;;;;;;;;;10337843;28;20381;-63
2024/01/20 06:24:12;;;;;;;4.65;2.10;;;;;;;;;;10316602;28;20272;-61
2024/01/20 06:29:12;;;;;;;2.90;2.30;;;;;;;;;;10296215;28;20045;-61
2024/01/20 06:34:13;;;;;;;2.60;2.40;;;;;;;;;;10322838;28;20564;-61
2024/01/20 06:39:14;;;;;;;4.82;2.53;;;;;;;;;;10322941;28;20035;-61
2024/01/20 06:44:14;;;;;;;2.83;2.42;;;;;;;;;;10233583;28;20044;-61
2024/01/20 06:49:15;;;;;;;9.65;2.33;;;;;;;;;;10230247;28;20489;-61
2024/01/20 06:54:16;;;;;;;4.70;2.55;;;;;;;;;;10233157;28;20041;-61
2024/01/20 06:59:17;;;;;;;4.18;2.70;;;;;;;;;;10256717;28;20026;-61
2024/01/20 07:04:17;;;;;;;3.38;2.28;;;;;;;;;;10294188;28;20033;-61
2024/01/20 07:09:18;;;;;;;6.53;3.25;;;;;;;;;;10293769;28;20084;-61
2024/01/20 07:14:19;;;;;;;2.88;2.58;;;;;;;;;;10327057;28;20026;-61
2024/01/20 07:19:20;;;;;;;4.43;2.65;;;;;;;;;;10261126;28;20033;-61
2024/01/20 07:24:20;;;;;;;5.43;2.85;;;;;;;;;;10335192;28;20027;-61
2024/01/20 07:29:22;;;;;;;8.63;2.63;;;;;;;;;;10327826;28;20150;-61
2024/01/20 07:34:22;;;;;;;2.92;2.63;;;;;;;;;;10327735;28;20030;-61
2024/01/20 07:39:23;;;;;;;6.28;2.88;;;;;;;;;;10326987;28;20460;-61
2024/01/20 07:44:23;;;;;;;8.30;2.53;;;;;;;;;;10327514;28;20429;-61
2024/01/20 07:49:24;;;;;;;3.40;2.83;;;;;;;;;;10326451;28;20253;-61
2024/01/20 07:54:24;;;;;;;4.70;3.05;;;;;;;;;;10326550;28;20042;-61
2024/01/20 07:59:25;;;;;;;10.70;2.85;;;;;;;;;;10325324;28;20018;-61
2024/01/20 08:04:26;;;;;;;9.27;3.72;;;;;;;;;;10326144;28;20022;-61
2024/01/20 08:09:27;;;;;;;5.93;3.20;;;;;;;;;;10325748;28;20416;-61
2024/01/20 08:14:27;;;;;;;7.75;3.85;;;;;;;;;;10325954;28;20034;-61
2024/01/20 08:19:28;;;;;;;8.23;3.30;;;;;;;;;;10326368;28;20030;-61
2024/01/20 08:24:28;;;;;;;3.83;3.25;;;;;;;;;;10325069;28;20534;-61
2024/01/20 08:29:29;;;;;;;12.63;3.85;;;;;;;;;;10325199;28;20502;-61
2024/01/20 08:34:29;;;;;;;11.98;4.70;;;;;;;;;;10315920;28;20042;-61
2024/01/20 08:39:30;;;;;;;12.13;4.70;;;;;;;;;;10324656;28;20266;-61
2024/01/20 08:44:32;;;;;;;16.35;5.70;;;;;;;;;;10324451;28;20034;-61
2024/01/20 08:49:32;;;;;;;10.73;5.18;;;;;;;;;;10325402;28;20026;-62
2024/01/20 08:54:33;;;;;;;20.13;5.93;;;;;;;;;;10324838;28;20030;-61
2024/01/20 08:59:34;;;;;;;13.02;4.80;;;;;;;;;;10324938;28;20033;-61
2024/01/20 09:04:34;;;;;;;18.08;5.35;;;;;;;;;;10324576;28;20023;-61
2024/01/20 09:09:35;;;;;;;11.68;5.00;;;;;;;;;;10323769;28;20362;-62
2024/01/20 09:14:36;;;;;;;22.80;5.07;;;;;;;;;;10324789;28;20029;-62
2024/01/20 09:19:37;;;;;;;10.20;4.80;;;;;;;;;;10324217;28;20031;-62
2024/01/20 09:24:37;;;;;;;12.45;4.47;;;;;;;;;;10323557;28;20023;-61
2024/01/20 09:29:38;;;;;;;10.48;4.88;;;;;;;;;;10324047;28;20022;-61
2024/01/20 09:34:38;;;;;;;22.00;5.28;;;;;;;;;;10323355;28;20482;-61
2024/01/20 09:39:39;;;;;;;33.40;5.15;;;;;;;;;;10323022;28;20049;-61
2024/01/20 09:44:40;;;;;;;14.48;5.13;;;;;;;;;;10331676;28;20470;-61
2024/01/20 09:49:40;;;;;;;22.52;4.68;;;;;;;;;;10331914;28;20489;-61
2024/01/20 09:55:21;;;;;;;21.13;4.95;;;;;;;;;;10330639;28;20027;-61
2024/01/20 10:00:23;;;;;;;20.13;4.97;;;;;;;;;;10330910;28;20030;-61
2024/01/20 10:05:24;;;;;;;14.88;5.22;;;;;;;;;;10331005;28;20034;-60
2024/01/20 10:10:25;;;;;;;18.08;4.93;;;;;;;;;;10330584;28;20052;-60
2024/01/20 10:15:28;;;;;;;12.88;3.92;;;;;;;;;;10330899;28;20432;-60
2024/01/20 10:20:34;;;;;;;9.98;4.00;;;;;;;;;;10330376;28;20065;-61
2024/01/20 10:25:35;;;;;;;10.35;3.97;;;;;;;;;;10330588;28;20073;-61
2024/01/20 10:30:38;;;;;;;10.38;4.28;;;;;;;;;;10329347;28;20026;-62
2024/01/20 10:35:39;;;;;;;11.82;4.75;;;;;;;;;;10329507;28;20065;-61
2024/01/20 10:40:42;;;;;;;18.65;4.20;;;;;;;;;;10329414;28;20049;-61
2024/01/20 10:45:59;;;;;;;14.15;4.00;;;;;;;;;;10328878;28;20062;-61
2024/01/20 10:51:01;;;;;;;6.07;3.60;;;;;;;;;;10327122;28;20551;-61
2024/01/20 10:56:04;;;;;;;9.77;3.50;;;;;;;;;;10326530;28;20033;-61
2024/01/20 11:01:05;;;;;;;11.05;4.28;;;;;;;;;;10328957;28;20031;-61
2024/01/20 11:06:06;;;;;;;7.75;3.50;;;;;;;;;;10328054;28;20098;-60
2024/01/20 11:11:09;;;;;;;7.55;4.20;;;;;;;;;;10328776;28;20022;-60
2024/01/20 11:16:21;;;;;;;8.98;3.55;;;;;;;;;;10327728;28;20030;-60
2024/01/20 11:21:22;;;;;;;8.02;3.80;;;;;;;;;;10329993;28;20045;-60
2024/01/20 11:26:34;;;;;;;7.85;3.30;;;;;;;;;;10327932;28;20061;-61
2024/01/20 11:31:35;;;;;;;6.45;3.15;;;;;;;;;;10328359;28;20084;-61
2024/01/20 11:36:36;;;;;;;7.90;2.90;;;;;;;;;;10346840;23;20050;-48
2024/01/20 11:41:36;;;;;;;7.25;2.97;;;;;;;;;;10343078;28;20037;-51
2024/01/20 11:46:37;;;;;;;6.72;3.13;;;;;;;;;;10366868;28;20037;-52
2024/01/20 11:51:38;;;;;;;5.80;3.05;;;;;;;;;;10351837;28;20068;-52
2024/01/20 11:56:38;;;;;;;6.35;2.97;;;;;;;;;;10361791;28;20030;-57
2024/01/20 12:01:39;;;;;;;8.05;3.33;;;;;;;;;;10312173;28;20035;-51
2024/01/20 12:06:41;;;;;;;6.78;2.88;;;;;;;;;;10349053;28;20028;-53
2024/01/20 12:11:41;;;;;;;7.82;3.75;;;;;;;;;;10350855;28;20029;-52
2024/01/20 12:16:42;;;;;;;6.28;2.70;;;;;;;;;;10347547;28;20030;-58
2024/01/20 12:21:43;;;;;;;5.75;2.88;;;;;;;;;;10342492;28;20045;-57
2024/01/20 12:26:43;;;;;;;4.50;2.70;;;;;;;;;;10356333;28;20220;-55
2024/01/20 12:31:44;;;;;;;5.35;2.55;;;;;;;;;;10343671;28;20037;-52
2024/01/20 12:36:44;;;;;;;9.60;2.70;;;;;;;;;;10356366;28;20420;-50
2024/01/20 12:41:45;;;;;;;4.55;2.85;;;;;;;;;;10362858;28;20030;-51
2024/01/20 12:46:47;;;;;;;4.88;2.55;;;;;;;;;;10359760;28;20050;-51
2024/01/20 12:51:48;;;;;;;5.88;3.13;;;;;;;;;;10354531;28;20388;-52
2024/01/20 12:56:49;;;;;;;7.22;2.78;;;;;;;;;;10358193;28;20019;-52
2024/01/20 13:01:50;;;;;;;6.00;3.22;;;;;;;;;;10361644;28;20099;-51
2024/01/20 13:06:50;;;;;;;6.30;2.72;;;;;;;;;;10336376;28;20489;-52
2024/01/20 13:11:51;;;;;;;8.63;3.33;;;;;;;;;;10327168;28;20280;-49
2024/01/20 13:16:51;;;;;;;30.35;10.65;;;;;;;;;;10326785;28;20375;-50
2024/01/20 13:21:52;;;;;;;20.52;7.32;;;;;;;;;;10326869;28;20035;-49
2024/01/20 13:26:52;;;;;;;16.35;6.57;;;;;;;;;;10325603;28;20037;-52
2024/01/20 13:31:53;;;;;;;72.13;20.70;;;;;;;;;;10327309;28;20031;-50
2024/01/20 13:36:54;;;;;;;97.00;29.27;;;;;;;;;;10319642;28;20050;-51
2024/01/20 13:41:54;;;;;;;83.68;24.40;;;;;;;;;;10326747;28;20041;-52
2024/01/20 13:46:55;;;;;;;67.03;20.00;;;;;;;;;;10328553;28;20492;-48
2024/01/20 13:51:55;;;;;;;54.67;15.68;;;;;;;;;;10350624;28;20607;-52
2024/01/20 13:56:56;;;;;;;53.10;13.70;;;;;;;;;;10353768;28;20413;-51
2024/01/20 14:01:56;;;;;;;42.88;12.52;;;;;;;;;;10359062;28;20394;-52
2024/01/20 14:06:58;;;;;;;45.72;11.77;;;;;;;;;;10359885;28;20041;-51
2024/01/20 14:11:59;;;;;;;44.40;11.00;;;;;;;;;;10324364;28;20026;-52
2024/01/20 14:17:01;;;;;;;37.25;10.70;;;;;;;;;;10349059;28;20033;-51
2024/01/20 14:22:02;;;;;;;36.72;10.10;;;;;;;;;;10359510;28;20030;-51
2024/01/20 14:27:02;;;;;;;33.72;9.63;;;;;;;;;;10340508;28;20486;-51
2024/01/20 14:32:04;;;;;;;30.25;9.02;;;;;;;;;;10352178;28;20039;-52
2024/01/20 14:37:04;;;;;;;24.38;8.20;;;;;;;;;;10356539;28;20486;-46
2024/01/20 14:42:05;;;;;;;31.92;9.30;;;;;;;;;;10362886;28;20021;-51
2024/01/20 14:47:05;;;;;;;30.52;8.25;;;;;;;;;;10281938;28;20038;-51
2024/01/20 14:52:06;;;;;;;21.48;7.95;;;;;;;;;;10241345;28;20082;-48
2024/01/20 14:57:06;;;;;;;25.45;7.93;;;;;;;;;;10337979;28;20076;-52
2024/01/20 15:02:07;;;;;;;23.98;7.88;;;;;;;;;;10350701;28;20029;-52
2024/01/20 15:07:08;;;;;;;19.65;6.40;;;;;;;;;;10287623;28;20023;-52
2024/01/20 15:12:09;;;;;;;24.83;7.03;;;;;;;;;;10331176;28;20026;-47
2024/01/20 15:17:12;;;;;;;16.63;5.93;;;;;;;;;;10335203;28;20030;-48
2024/01/20 15:22:12;;;;;;;17.67;6.90;;;;;;;;;;10336005;28;20030;-52
2024/01/20 15:27:13;;;;;;;15.85;6.10;;;;;;;;;;10333960;28;20472;-52
2024/01/20 15:32:14;;;;;;;18.45;6.13;;;;;;;;;;10354136;28;20034;-51
2024/01/20 15:37:14;;;;;;;13.73;5.35;;;;;;;;;;10286970;28;20047;-52
2024/01/20 15:42:17;;;;;;;17.55;5.32;;;;;;;;;;10334343;28;20019;-50
2024/01/20 15:47:17;;;;;;;14.20;5.50;;;;;;;;;;10333640;28;20273;-49
2024/01/20 15:52:18;;;;;;;22.85;6.45;;;;;;;;;;10333083;28;20034;-53
2024/01/20 15:57:18;;;;;;;17.23;5.60;;;;;;;;;;10336492;28;20041;-52
2024/01/20 16:02:19;;;;;;;11.98;4.80;;;;;;;;;;10296075;28;20030;-54
2024/01/20 16:07:19;;;;;;;13.50;4.93;;;;;;;;;;10228225;28;20022;-53
2024/01/20 16:12:20;;;;;;;9.07;4.03;;;;;;;;;;10314251;28;20030;-50
2024/01/20 16:17:21;;;;;;;10.02;4.35;;;;;;;;;;10227475;28;20033;-52
2024/01/20 16:22:21;;;;;;;8.32;3.97;;;;;;;;;;10263335;28;20134;-52
2024/01/20 16:27:22;;;;;;;12.15;4.60;;;;;;;;;;10328908;28;20038;-52
2024/01/20 16:32:23;;;;;;;9.48;3.97;;;;;;;;;;10305652;28;20065;-52
2024/01/20 16:37:24;;;;;;;8.45;3.58;;;;;;;;;;10301020;28;20540;-52
2024/01/20 16:42:24;;;;;;;7.38;3.67;;;;;;;;;;10322899;28;20034;-54
2024/01/20 16:47:25;;;;;;;5.85;3.47;;;;;;;;;;10310415;28;20474;-55
2024/01/20 16:52:25;;;;;;;5.57;3.63;;;;;;;;;;10278711;28;20633;-52
2024/01/20 16:57:26;;;;;;;7.30;3.55;;;;;;;;;;10315730;28;20034;-51
2024/01/20 17:02:27;;;;;;;8.30;3.63;;;;;;;;;;10248367;28;20045;-47
2024/01/20 17:07:28;;;;;;;6.68;3.58;;;;;;;;;;10273063;28;20117;-56
2024/01/20 17:12:28;;;;;;;7.18;2.85;;;;;;;;;;10329154;28;20080;-53
2024/01/20 17:17:29;;;;;;;5.07;3.15;;;;;;;;;;10311353;28;20084;-51
2024/01/20 17:22:30;;;;;;;9.95;3.38;;;;;;;;;;10280551;28;20405;-51
2024/01/20 17:27:30;;;;;;;4.75;3.05;;;;;;;;;;10221153;28;20025;-50
2024/01/20 17:32:31;;;;;;;4.43;2.90;;;;;;;;;;10308421;28;20045;-53
2024/01/20 17:37:32;;;;;;;6.43;3.25;;;;;;;;;;10327144;28;20444;-53
2024/01/20 17:42:33;;;;;;;5.63;3.28;;;;;;;;;;10313100;28;20034;-50
2024/01/20 17:47:34;;;;;;;4.78;3.15;;;;;;;;;;10317316;28;20030;-51
2024/01/20 17:52:34;;;;;;;9.48;3.25;;;;;;;;;;10314021;28;20109;-59
2024/01/20 17:57:35;;;;;;;8.82;3.58;;;;;;;;;;10322614;28;20030;-55
2024/01/20 18:02:35;;;;;;;30.73;4.85;;;;;;;;;;10322520;28;20040;-51
2024/01/20 18:07:36;;;;;;;19.58;3.80;;;;;;;;;;10227357;28;20037;-52
2024/01/20 18:12:39;;;;;;;17.98;3.90;;;;;;;;;;10221136;28;20096;-51
2024/01/20 18:17:40;;;;;;;10.30;3.78;;;;;;;;;;10281862;28;20025;-53
2024/01/20 18:22:40;;;;;;;4.35;3.00;;;;;;;;;;10329868;28;20069;-53
2024/01/20 18:27:41;;;;;;;13.07;3.30;;;;;;;;;;10263987;28;20022;-51
2024/01/20 18:32:42;;;;;;;8.32;3.90;;;;;;;;;;10266907;28;20045;-51
2024/01/20 18:37:43;;;;;;;10.15;3.28;;;;;;;;;;10228154;28;20057;-51
2024/01/20 18:42:45;;;;;;;11.25;3.28;;;;;;;;;;10290907;28;20468;-47
2024/01/20 18:47:46;;;;;;;7.85;3.67;;;;;;;;;;10263573;28;20792;-49
2024/01/20 18:52:47;;;;;;;13.13;3.42;;;;;;;;;;10323646;28;20454;-52
2024/01/20 18:57:47;;;;;;;10.60;3.92;;;;;;;;;;10225142;28;20038;-49
2024/01/20 19:02:48;;;;;;;6.32;3.83;;;;;;;;;;10232365;28;20076;-51
2024/01/20 19:07:49;;;;;;;15.88;3.80;;;;;;;;;;10286726;28;20030;-51
2024/01/20 19:12:50;;;;;;;6.45;3.47;;;;;;;;;;10333828;28;20034;-50
2024/01/20 19:17:50;;;;;;;7.50;3.28;;;;;;;;;;10332624;28;20080;-52
2024/01/20 19:22:51;;;;;;;8.23;3.58;;;;;;;;;;10335065;28;20034;-49
2024/01/20 19:27:51;;;;;;;5.82;3.45;;;;;;;;;;10319833;28;20019;-52
2024/01/20 19:32:52;;;;;;;8.32;4.22;;;;;;;;;;10337398;28;20041;-51
2024/01/20 19:38:00;;;;;;;14.13;4.53;;;;;;;;;;10340132;28;20046;-52
2024/01/20 19:43:01;;;;;;;7.28;3.92;;;;;;;;;;10342172;28;20030;-50
2024/01/20 19:48:02;;;;;;;11.80;5.00;;;;;;;;;;10331714;28;20038;-50
2024/01/20 19:53:03;;;;;;;16.33;4.00;;;;;;;;;;10331287;28;20189;-52
2024/01/20 19:58:04;;;;;;;10.82;4.43;;;;;;;;;;10334520;28;20026;-50
2024/01/20 20:03:04;;;;;;;13.60;4.15;;;;;;;;;;10326957;28;20030;-50
2024/01/20 20:08:06;;;;;;;8.88;4.55;;;;;;;;;;10327829;28;20030;-51
2024/01/20 20:13:06;;;;;;;9.43;4.47;;;;;;;;;;10335448;28;20030;-52
2024/01/20 20:18:07;;;;;;;6.97;3.00;;;;;;;;;;10340684;28;20038;-54
2024/01/20 20:23:08;;;;;;;12.05;4.57;;;;;;;;;;10331233;28;20038;-53
2024/01/20 20:28:08;;;;;;;6.00;3.97;;;;;;;;;;10326020;28;20029;-50
2024/01/20 20:33:09;;;;;;;8.50;4.15;;;;;;;;;;10324978;28;20027;-50
2024/01/20 20:38:09;;;;;;;10.90;4.05;;;;;;;;;;10325122;28;20055;-52
2024/01/20 20:43:11;;;;;;;5.95;3.83;;;;;;;;;;10325615;28;20069;-50
2024/01/20 20:48:11;;;;;;;8.40;3.85;;;;;;;;;;10326983;28;20026;-52
2024/01/20 20:53:12;;;;;;;7.95;4.53;;;;;;;;;;10339878;28;20026;-54
2024/01/20 20:58:12;;;;;;;5.68;3.80;;;;;;;;;;10345756;28;20034;-51
2024/01/20 21:03:14;;;;;;;4.90;3.80;;;;;;;;;;10361842;28;20030;-51
2024/01/20 21:08:14;;;;;;;7.53;4.32;;;;;;;;;;10339258;28;20026;-51
2024/01/20 21:13:15;;;;;;;12.75;4.13;;;;;;;;;;10360739;28;20385;-51
2024/01/20 21:18:16;;;;;;;4.90;3.70;;;;;;;;;;10361914;28;20033;-50
2024/01/20 21:23:16;;;;;;;8.20;3.72;;;;;;;;;;10348660;28;20044;-50
2024/01/20 21:28:18;;;;;;;7.97;3.90;;;;;;;;;;10346753;28;20094;-52
2024/01/20 21:33:19;;;;;;;9.90;3.97;;;;;;;;;;10354558;28;20076;-50
2024/01/20 21:38:19;;;;;;;6.45;3.92;;;;;;;;;;10343368;28;20461;-51
2024/01/20 21:43:20;;;;;;;5.88;3.75;;;;;;;;;;10348367;28;20386;-49
2024/01/20 21:48:20;;;;;;;7.22;4.13;;;;;;;;;;10356504;28;20029;-50
2024/01/20 21:53:21;;;;;;;5.10;3.70;;;;;;;;;;10338422;28;20029;-51
2024/01/20 21:58:22;;;;;;;6.72;3.72;;;;;;;;;;10339810;28;20021;-49
2024/01/20 22:03:24;;;;;;;5.40;3.88;;;;;;;;;;10355471;28;20030;-48
2024/01/20 22:08:24;;;;;;;7.50;3.65;;;;;;;;;;10351050;28;20378;-50
2024/01/20 22:13:26;;;;;;;7.18;3.92;;;;;;;;;;10334445;28;20022;-53
2024/01/20 22:18:27;;;;;;;5.10;4.03;;;;;;;;;;10331626;28;20030;-47
2024/01/20 22:23:28;;;;;;;7.57;4.35;;;;;;;;;;10328094;28;20045;-51
2024/01/20 22:28:28;;;;;;;17.05;4.13;;;;;;;;;;10336399;28;20037;-53
2024/01/20 22:33:29;;;;;;;9.73;4.47;;;;;;;;;;10339005;28;20264;-53
2024/01/20 22:38:29;;;;;;;18.27;4.15;;;;;;;;;;10341715;28;20034;-53
2024/01/20 22:43:31;;;;;;;6.82;3.60;;;;;;;;;;10339159;28;20034;-54
2024/01/20 22:48:35;;;;;;;5.28;4.05;;;;;;;;;;10339415;28;20045;-50
2024/01/20 22:53:37;;;;;;;8.55;4.15;;;;;;;;;;10352570;28;20081;-53
2024/01/20 22:58:38;;;;;;;6.80;4.57;;;;;;;;;;10362527;28;20040;-53
2024/01/20 23:03:39;;;;;;;8.93;4.05;;;;;;;;;;10365369;28;20040;-56
2024/01/20 23:08:40;;;;;;;13.75;4.20;;;;;;;;;;10352378;28;20030;-53
2024/01/20 23:13:40;;;;;;;7.30;4.05;;;;;;;;;;10358823;28;20030;-53
2024/01/20 23:18:41;;;;;;;7.60;4.13;;;;;;;;;;10354026;28;20029;-54
2024/01/20 23:23:41;;;;;;;11.55;4.53;;;;;;;;;;10342251;28;20436;-52
2024/01/20 23:28:45;;;;;;;7.22;4.50;;;;;;;;;;10340620;28;20076;-51
2024/01/20 23:33:45;;;;;;;7.47;3.92;;;;;;;;;;10362664;28;20339;-49
2024/01/20 23:38:46;;;;;;;7.25;3.65;;;;;;;;;;10352437;28;20608;-55
2024/01/20 23:43:46;;;;;;;7.43;4.45;;;;;;;;;;10350841;28;20045;-48
2024/01/20 23:48:47;;;;;;;4.15;3.45;;;;;;;;;;10340062;28;20030;-63
2024/01/20 23:53:48;;;;;;;9.00;4.05;;;;;;;;;;10343594;28;20477;-48
2024/01/20 23:58:48;;;;;;;5.82;3.75;;;;;;;;;;10340761;28;20049;-49
